createdAt,value
2023-04-12T00:01:46.085Z,38.46
2023-04-12T00:04:14.575Z,38.25
2023-04-12T00:06:48.629Z,38.30
2023-04-12T00:09:16.935Z,38.32
2023-04-12T00:11:44.904Z,38.51
2023-04-12T00:14:12.849Z,38.45
2023-04-12T00:16:41.656Z,38.40
2023-04-12T00:19:10.386Z,38.29
2023-04-12T00:21:38.286Z,38.24
2023-04-12T00:24:08.385Z,38.30
2023-04-12T00:26:36.373Z,38.20
2023-04-12T00:29:04.519Z,38.33
2023-04-12T00:31:32.530Z,38.08
2023-04-12T00:34:00.499Z,38.52
2023-04-12T00:36:28.468Z,38.34
2023-04-12T00:38:56.698Z,38.21
2023-04-12T00:41:27.498Z,38.02
2023-04-12T00:43:55.943Z,38.05
2023-04-12T00:46:24.506Z,38.36
2023-04-12T00:48:52.888Z,38.38
2023-04-12T00:51:22.610Z,38.23
2023-04-12T00:53:50.654Z,38.05
2023-04-12T00:56:19.850Z,38.50
2023-04-12T00:58:49.426Z,38.17
2023-04-12T01:01:19.464Z,38.17
2023-04-12T01:03:47.504Z,38.23
2023-04-12T01:06:17.690Z,38.24
2023-04-12T01:08:52.568Z,38.28
2023-04-12T01:11:32.386Z,38.12
2023-04-12T01:14:05.289Z,38.33
2023-04-12T01:16:35.709Z,38.14
2023-04-12T01:19:05.945Z,38.67
2023-04-12T01:21:41.257Z,38.05
2023-04-12T01:24:25.040Z,38.53
2023-04-12T01:26:53.652Z,38.16
2023-04-12T01:29:23.504Z,38.34
2023-04-12T01:31:54.316Z,38.34
2023-04-12T01:34:23.255Z,38.34
2023-04-12T01:36:51.566Z,38.19
2023-04-12T01:39:19.752Z,38.47
2023-04-12T01:41:49.163Z,38.47
2023-04-12T01:44:17.219Z,38.63
2023-04-12T01:46:48.075Z,38.58
2023-04-12T01:49:16.018Z,38.41
2023-04-12T01:51:49.723Z,38.39
2023-04-12T01:54:20.420Z,38.43
2023-04-12T01:56:48.724Z,38.18
2023-04-12T01:59:16.777Z,38.26
2023-04-12T02:01:46.726Z,38.35
2023-04-12T02:04:14.775Z,38.60
2023-04-12T02:06:42.744Z,38.04
2023-04-12T02:09:10.753Z,38.43
2023-04-12T02:11:38.811Z,38.34
2023-04-12T02:14:07.729Z,38.34
2023-04-12T02:16:35.991Z,38.48
2023-04-12T02:19:08.388Z,38.25
2023-04-12T02:21:41.218Z,38.27
2023-04-12T02:24:09.316Z,38.21
2023-04-12T02:26:38.339Z,38.11
2023-04-12T02:29:07.771Z,38.13
2023-04-12T02:31:36.753Z,38.28
2023-04-12T02:34:06.139Z,38.56
2023-04-12T02:36:35.175Z,38.41
2023-04-12T02:39:03.830Z,38.40
2023-04-12T02:41:31.760Z,38.34
2023-04-12T02:43:59.655Z,38.46
2023-04-12T02:46:28.605Z,38.49
2023-04-12T02:48:56.994Z,38.60
2023-04-12T02:51:26.835Z,38.70
2023-04-12T02:53:54.883Z,38.36
2023-04-12T02:56:24.664Z,38.32
2023-04-12T02:58:53.000Z,38.40
2023-04-12T03:01:20.959Z,38.41
2023-04-12T03:03:49.014Z,38.64
2023-04-12T03:06:17.023Z,38.47
2023-04-12T03:08:46.700Z,38.46
2023-04-12T03:11:14.896Z,38.53
2023-04-12T03:13:42.816Z,38.35
2023-04-12T03:16:29.723Z,38.46
2023-04-12T03:18:57.868Z,38.20
2023-04-12T03:21:26.008Z,38.10
2023-04-12T03:23:55.552Z,38.07
2023-04-12T03:26:26.572Z,38.54
2023-04-12T03:28:57.633Z,38.48
2023-04-12T03:31:27.179Z,38.33
2023-04-12T03:33:55.307Z,38.47
2023-04-12T03:36:23.564Z,38.25
2023-04-12T03:38:51.995Z,38.35
2023-04-12T03:41:22.838Z,38.56
2023-04-12T03:43:50.828Z,38.25
2023-04-12T03:46:18.776Z,38.31
2023-04-12T03:48:46.987Z,38.20
2023-04-12T03:51:15.357Z,37.99
2023-04-12T03:53:43.264Z,38.33
2023-04-12T03:56:12.607Z,38.35
2023-04-12T03:58:42.397Z,38.19
2023-04-12T04:01:10.325Z,38.28
2023-04-12T04:03:38.813Z,38.26
2023-04-12T04:06:07.309Z,38.19
2023-04-12T04:08:35.500Z,38.27
2023-04-12T04:11:03.341Z,38.13
2023-04-12T04:13:31.284Z,38.21
2023-04-12T04:16:04.425Z,38.19
2023-04-12T04:18:32.860Z,38.01
2023-04-12T04:21:00.853Z,38.23
2023-04-12T04:23:29.227Z,38.39
2023-04-12T04:25:58.290Z,38.56
2023-04-12T04:28:26.280Z,38.13
2023-04-12T04:30:55.800Z,38.49
2023-04-12T04:33:25.152Z,38.19
2023-04-12T04:35:54.425Z,38.12
2023-04-12T04:38:25.964Z,38.16
2023-04-12T04:40:54.313Z,37.99
2023-04-12T04:43:22.395Z,37.87
2023-04-12T04:45:54.746Z,37.86
2023-04-12T04:48:24.434Z,38.17
2023-04-12T04:50:52.902Z,38.27
2023-04-12T04:53:22.374Z,38.20
2023-04-12T04:55:50.265Z,38.25
2023-04-12T04:58:18.425Z,38.15
2023-04-12T05:00:46.351Z,38.22
2023-04-12T05:03:14.318Z,37.87
2023-04-12T05:05:43.655Z,38.28
2023-04-12T05:08:11.864Z,38.08
2023-04-12T05:10:39.769Z,38.23
2023-04-12T05:13:07.694Z,38.00
2023-04-12T05:15:35.918Z,38.12
2023-04-12T05:18:04.118Z,38.22
2023-04-12T05:20:32.637Z,37.98
2023-04-12T05:23:01.998Z,38.14
2023-04-12T05:25:31.211Z,38.45
2023-04-12T05:27:59.104Z,38.16
2023-04-12T05:30:27.116Z,38.11
2023-04-12T05:32:55.047Z,37.95
2023-04-12T05:35:23.036Z,38.10
2023-04-12T05:37:51.287Z,37.95
2023-04-12T05:40:20.711Z,38.28
2023-04-12T05:42:48.625Z,37.95
2023-04-12T05:45:16.590Z,38.21
2023-04-12T05:47:44.817Z,37.93
2023-04-12T05:50:12.848Z,37.96
2023-04-12T05:52:40.731Z,37.97
2023-04-12T05:55:09.296Z,37.88
2023-04-12T05:57:38.888Z,38.07
2023-04-12T06:00:14.285Z,37.98
2023-04-12T06:02:42.340Z,38.11
2023-04-12T06:05:11.067Z,37.96
2023-04-12T06:07:39.440Z,38.02
2023-04-12T06:10:08.458Z,37.96
2023-04-12T06:12:36.437Z,37.98
2023-04-12T06:15:09.369Z,38.19
2023-04-12T06:17:37.808Z,37.82
2023-04-12T06:20:08.176Z,37.96
2023-04-12T06:22:36.171Z,37.90
2023-04-12T06:25:04.286Z,37.67
2023-04-12T06:27:32.594Z,38.08
2023-04-12T06:30:01.050Z,38.19
2023-04-12T06:32:30.341Z,38.17
2023-04-12T06:34:58.533Z,38.23
2023-04-12T06:37:26.605Z,37.83
2023-04-12T06:39:54.456Z,37.67
2023-04-12T06:42:22.319Z,38.02
2023-04-12T06:44:50.292Z,37.82
2023-04-12T06:47:18.504Z,38.11
2023-04-12T06:49:47.785Z,37.89
2023-04-12T06:52:15.986Z,37.92
2023-04-12T06:54:44.077Z,38.13
2023-04-12T06:57:12.378Z,37.98
2023-04-12T06:59:40.343Z,37.66
2023-04-12T07:02:08.397Z,38.10
2023-04-12T07:04:36.327Z,37.71
2023-04-12T07:07:05.936Z,37.71
2023-04-12T07:09:33.894Z,38.13
2023-04-12T07:12:02.320Z,38.10
2023-04-12T07:14:30.234Z,38.15
2023-04-12T07:16:58.421Z,37.69
2023-04-12T07:19:26.357Z,38.01
2023-04-12T07:21:54.268Z,38.14
2023-04-12T07:24:23.600Z,38.09
2023-04-12T07:26:52.024Z,37.93
2023-04-12T07:29:19.963Z,38.12
2023-04-12T07:31:48.480Z,37.93
2023-04-12T07:34:16.571Z,38.14
2023-04-12T07:36:45.374Z,37.85
2023-04-12T07:39:13.293Z,38.09
2023-04-12T07:41:46.250Z,38.02
2023-04-12T07:44:14.146Z,37.79
2023-04-12T07:46:42.170Z,38.20
2023-04-12T07:49:10.727Z,38.07
2023-04-12T07:51:38.723Z,37.66
2023-04-12T07:54:06.687Z,37.92
2023-04-12T07:56:35.106Z,37.97
2023-04-12T07:59:04.711Z,38.01
2023-04-12T08:01:32.739Z,37.96
2023-04-12T08:04:01.582Z,38.11
2023-04-12T08:06:32.364Z,38.34
2023-04-12T08:09:01.755Z,38.14
2023-04-12T08:11:29.636Z,38.12
2023-04-12T08:13:57.768Z,37.96
2023-04-12T08:16:27.624Z,37.97
2023-04-12T08:18:56.015Z,38.06
2023-04-12T08:21:23.943Z,38.07
2023-04-12T08:23:51.978Z,37.76
2023-04-12T08:26:19.935Z,37.65
2023-04-12T08:28:48.604Z,37.91
2023-04-12T08:31:17.005Z,38.16
2023-04-12T08:33:46.489Z,38.03
2023-04-12T08:36:14.478Z,38.12
2023-04-12T08:38:46.272Z,37.88
2023-04-12T08:41:15.267Z,37.90
2023-04-12T08:43:44.728Z,37.83
2023-04-12T08:46:13.605Z,38.09
2023-04-12T08:48:42.076Z,38.17
2023-04-12T08:51:12.787Z,37.96
2023-04-12T08:53:40.685Z,37.76
2023-04-12T08:56:09.761Z,37.93
2023-04-12T08:58:38.063Z,38.05
2023-04-12T09:01:06.473Z,38.01
2023-04-12T09:03:34.721Z,37.98
2023-04-12T09:06:04.214Z,37.88
2023-04-12T09:08:33.785Z,37.87
2023-04-12T09:11:01.752Z,37.71
2023-04-12T09:13:34.438Z,37.84
2023-04-12T09:16:02.321Z,37.90
2023-04-12T09:18:30.508Z,37.95
2023-04-12T09:21:08.003Z,37.75
2023-04-12T09:23:37.409Z,37.82
2023-04-12T09:26:06.794Z,37.68
2023-04-12T09:28:34.923Z,37.86
2023-04-12T09:31:04.097Z,37.68
2023-04-12T09:33:35.918Z,37.94
2023-04-12T09:36:04.129Z,37.79
2023-04-12T09:38:32.394Z,37.84
2023-04-12T09:41:17.585Z,37.81
2023-04-12T09:43:47.584Z,37.84
2023-04-12T09:46:16.522Z,37.79
2023-04-12T09:48:50.333Z,37.79
2023-04-12T09:51:25.439Z,37.87
2023-04-12T09:53:53.681Z,37.88
2023-04-12T09:56:23.114Z,38.00
2023-04-12T09:58:52.431Z,37.84
2023-04-12T10:01:20.346Z,37.77
2023-04-12T10:03:48.638Z,37.87
2023-04-12T10:06:18.417Z,38.05
2023-04-12T10:08:46.666Z,37.91
2023-04-12T10:11:14.631Z,37.95
2023-04-12T10:13:43.977Z,38.13
2023-04-12T10:16:12.116Z,37.79
2023-04-12T10:18:40.381Z,37.88
2023-04-12T10:21:08.952Z,37.84
2023-04-12T10:23:36.897Z,37.81
2023-04-12T10:26:05.327Z,37.82
2023-04-12T10:28:33.225Z,38.06
2023-04-12T10:31:03.053Z,37.73
2023-04-12T10:33:31.584Z,37.99
2023-04-12T10:36:03.098Z,37.65
2023-04-12T10:38:37.810Z,38.07
2023-04-12T10:41:14.217Z,37.89
2023-04-12T10:43:42.423Z,37.79
2023-04-12T10:46:39.556Z,37.88
2023-04-12T10:49:09.713Z,37.86
2023-04-12T10:51:38.041Z,37.89
2023-04-12T10:54:35.291Z,37.96
2023-04-12T10:57:04.216Z,38.03
2023-04-12T10:59:54.284Z,37.74
2023-04-12T11:02:23.849Z,37.90
2023-04-12T11:05:09.378Z,37.79
2023-04-12T11:07:40.723Z,37.72
2023-04-12T11:10:15.194Z,37.73
2023-04-12T11:12:43.399Z,37.97
2023-04-12T11:15:13.678Z,38.01
2023-04-12T11:17:43.110Z,37.86
2023-04-12T11:20:14.040Z,37.72
2023-04-12T11:22:42.367Z,37.71
2023-04-12T11:25:11.427Z,37.81
2023-04-12T11:27:39.477Z,37.75
2023-04-12T11:30:10.803Z,37.62
2023-04-12T11:32:41.531Z,37.69
2023-04-12T11:35:11.190Z,38.10
2023-04-12T11:37:39.145Z,37.64
2023-04-12T11:40:09.418Z,37.49
2023-04-12T11:42:37.681Z,37.82
2023-04-12T11:45:15.740Z,37.78
2023-04-12T11:47:45.730Z,37.86
2023-04-12T11:50:15.537Z,37.86
2023-04-12T11:52:43.531Z,37.81
2023-04-12T11:55:11.960Z,37.85
2023-04-12T11:57:39.874Z,37.82
2023-04-12T12:00:11.267Z,37.84
2023-04-12T12:02:48.916Z,37.66
2023-04-12T12:05:22.735Z,37.70
2023-04-12T12:07:52.711Z,37.85
2023-04-12T12:10:36.640Z,37.71
2023-04-12T12:13:11.973Z,37.87
2023-04-12T12:15:40.034Z,37.75
2023-04-12T12:18:09.240Z,37.58
2023-04-12T12:20:43.517Z,37.76
2023-04-12T12:23:11.603Z,37.93
2023-04-12T12:25:39.613Z,38.05
2023-04-12T12:28:07.599Z,37.92
2023-04-12T12:30:39.898Z,38.04
2023-04-12T12:33:08.218Z,38.08
2023-04-12T12:35:36.330Z,38.06
2023-04-12T12:38:08.615Z,37.91
2023-04-12T12:40:37.004Z,37.92
2023-04-12T12:43:06.818Z,38.07
2023-04-12T12:45:35.705Z,37.78
2023-04-12T12:48:04.833Z,38.01
2023-04-12T12:50:33.468Z,37.99
2023-04-12T12:53:01.957Z,38.25
2023-04-12T12:55:31.740Z,38.05
2023-04-12T13:00:31.611Z,37.85
2023-04-12T13:03:00.409Z,38.04
2023-04-12T13:05:28.598Z,37.97
2023-04-12T13:07:56.482Z,38.24
2023-04-12T13:10:26.478Z,38.11
2023-04-12T13:12:57.423Z,38.30
2023-04-12T13:15:25.592Z,38.16
2023-04-12T13:17:53.874Z,37.89
2023-04-12T13:20:22.099Z,38.10
2023-04-12T13:22:51.513Z,38.27
2023-04-12T13:25:20.537Z,38.00
2023-04-12T13:27:48.944Z,38.10
2023-04-12T13:30:18.988Z,38.20
2023-04-12T13:32:47.236Z,38.21
2023-04-12T13:35:15.430Z,38.13
2023-04-12T13:37:43.436Z,38.25
2023-04-12T13:40:11.940Z,37.98
2023-04-12T13:42:40.157Z,38.17
2023-04-12T13:45:12.091Z,38.13
2023-04-12T13:47:41.876Z,38.17
2023-04-12T13:50:10.801Z,37.96
2023-04-12T13:52:39.027Z,38.01
2023-04-12T13:55:09.201Z,37.98
2023-04-12T13:57:37.416Z,38.00
2023-04-12T14:00:08.908Z,37.99
2023-04-12T14:02:37.219Z,38.12
2023-04-12T14:05:08.260Z,38.12
2023-04-12T14:07:36.610Z,38.26
2023-04-12T14:10:05.042Z,38.31
2023-04-12T14:12:33.338Z,38.17
2023-04-12T14:15:01.314Z,38.16
2023-04-12T14:17:32.635Z,38.24
2023-04-12T14:20:00.997Z,38.02
2023-04-12T14:22:31.747Z,38.03
2023-04-12T14:24:59.713Z,38.09
2023-04-12T14:27:27.945Z,38.03
2023-04-12T14:29:55.971Z,38.13
2023-04-12T14:32:23.958Z,38.35
2023-04-12T14:34:51.920Z,37.71
2023-04-12T14:37:19.779Z,37.97
2023-04-12T14:39:49.158Z,38.13
2023-04-12T14:42:17.368Z,37.90
2023-04-12T14:44:45.508Z,37.96
2023-04-12T14:47:13.538Z,38.13
2023-04-12T14:49:41.552Z,38.00
2023-04-12T14:52:09.824Z,38.26
2023-04-12T14:54:37.875Z,38.27
2023-04-12T14:57:07.289Z,38.14
2023-04-12T14:59:35.368Z,38.39
2023-04-12T15:02:03.919Z,38.44
2023-04-12T15:04:32.020Z,38.49
2023-04-12T15:07:00.356Z,38.15
2023-04-12T15:09:28.758Z,38.72
2023-04-12T15:12:01.325Z,38.19
2023-04-12T15:14:30.815Z,38.24
2023-04-12T15:16:58.710Z,38.36
2023-04-12T15:19:27.325Z,38.47
2023-04-12T15:21:56.078Z,38.45
2023-04-12T15:24:24.046Z,38.31
2023-04-12T15:26:52.900Z,38.12
2023-04-12T15:29:21.389Z,38.09
2023-04-12T15:31:51.719Z,38.36
2023-04-12T15:34:20.101Z,38.12
2023-04-12T15:36:48.116Z,38.06
2023-04-12T15:39:16.097Z,38.15
2023-04-12T15:41:44.319Z,38.13
2023-04-12T15:44:13.427Z,38.13
2023-04-12T15:46:41.566Z,38.13
2023-04-12T15:49:10.907Z,38.26
2023-04-12T15:51:39.187Z,38.19
2023-04-12T15:54:07.320Z,38.04
2023-04-12T15:56:35.551Z,38.39
2023-04-12T15:59:03.699Z,38.25
2023-04-12T16:01:31.908Z,38.17
2023-04-12T16:04:00.236Z,38.62
2023-04-12T16:06:34.562Z,38.22
2023-04-12T16:09:02.839Z,38.13
2023-04-12T16:11:33.906Z,38.12
2023-04-12T16:14:03.094Z,38.30
2023-04-12T16:16:31.259Z,38.15
2023-04-12T16:19:00.204Z,38.53
2023-04-12T16:21:30.380Z,38.47
2023-04-12T16:23:58.614Z,38.42
2023-04-12T16:26:27.145Z,38.26
2023-04-12T16:28:55.255Z,38.31
2023-04-12T16:31:25.460Z,38.39
2023-04-12T16:33:53.588Z,38.54
2023-04-12T16:36:23.677Z,38.66
2023-04-12T16:38:55.013Z,38.69
2023-04-12T16:41:23.487Z,38.99
2023-04-12T16:43:53.725Z,38.88
2023-04-12T16:46:22.262Z,39.00
2023-04-12T16:48:50.370Z,38.87
2023-04-12T16:51:18.698Z,39.13
2023-04-12T16:53:46.761Z,39.03
2023-04-12T16:56:16.960Z,39.15
2023-04-12T16:58:47.648Z,38.83
2023-04-12T17:01:16.699Z,38.83
2023-04-12T17:03:45.614Z,38.71
2023-04-12T17:06:13.722Z,38.65
2023-04-12T17:08:41.816Z,38.80
2023-04-12T17:11:10.248Z,38.63
2023-04-12T17:13:39.666Z,38.79
2023-04-12T17:16:08.732Z,38.94
2023-04-12T17:18:36.965Z,39.04
2023-04-12T17:21:06.544Z,38.62
2023-04-12T17:23:34.543Z,38.99
2023-04-12T17:26:03.013Z,39.15
2023-04-12T17:28:31.344Z,38.87
2023-04-12T17:31:01.452Z,39.36
2023-04-12T17:33:29.395Z,39.46
2023-04-12T17:35:58.030Z,38.82
2023-04-12T17:38:26.054Z,39.30
2023-04-12T17:40:54.254Z,39.03
2023-04-12T17:43:22.140Z,39.22
2023-04-12T17:45:50.069Z,39.09
2023-04-12T17:48:19.548Z,38.79
2023-04-12T17:50:47.698Z,39.24
2023-04-12T17:53:15.662Z,39.15
2023-04-12T17:55:43.622Z,38.83
2023-04-12T17:58:11.564Z,39.11
2023-04-12T18:00:40.111Z,39.07
2023-04-12T18:03:11.459Z,38.93
2023-04-12T18:05:40.956Z,39.08
2023-04-12T18:08:09.946Z,38.97
2023-04-12T18:10:37.956Z,39.18
2023-04-12T18:13:06.175Z,39.37
2023-04-12T18:15:34.199Z,39.28
2023-04-12T18:18:02.287Z,39.41
2023-04-12T18:20:30.340Z,39.13
2023-04-12T18:22:59.919Z,39.41
2023-04-12T18:25:27.859Z,39.13
2023-04-12T18:27:56.223Z,39.31
2023-04-12T18:30:24.446Z,39.43
2023-04-12T18:32:53.855Z,39.36
2023-04-12T18:35:21.784Z,39.08
2023-04-12T18:37:49.695Z,39.37
2023-04-12T18:40:19.340Z,39.53
2023-04-12T18:42:47.608Z,39.11
2023-04-12T18:45:15.945Z,39.44
2023-04-12T18:47:44.860Z,39.11
2023-04-12T18:50:14.065Z,39.30
2023-04-12T18:52:42.334Z,39.48
2023-04-12T18:55:10.563Z,39.13
2023-04-12T18:57:40.285Z,39.37
2023-04-12T19:00:14.674Z,38.93
2023-04-12T19:02:42.728Z,39.42
2023-04-12T19:05:11.112Z,39.13
2023-04-12T19:07:39.041Z,39.14
2023-04-12T19:10:08.608Z,39.17
2023-04-12T19:12:36.883Z,39.34
2023-04-12T19:15:10.605Z,39.12
2023-04-12T19:17:39.113Z,39.19
2023-04-12T19:20:08.924Z,38.84
2023-04-12T19:22:37.246Z,39.10
2023-04-12T19:25:05.658Z,39.25
2023-04-12T19:27:33.608Z,38.94
2023-04-12T19:30:01.656Z,39.04
2023-04-12T19:32:31.301Z,39.07
2023-04-12T19:34:59.260Z,39.23
2023-04-12T19:37:28.505Z,39.05
2023-04-12T19:39:56.385Z,38.90
2023-04-12T19:42:24.331Z,38.77
2023-04-12T19:44:52.621Z,38.85
2023-04-12T19:47:20.527Z,38.77
2023-04-12T19:49:50.232Z,38.60
2023-04-12T19:52:20.168Z,38.98
2023-04-12T19:54:48.147Z,38.72
2023-04-12T19:57:17.844Z,38.81
2023-04-12T19:59:45.755Z,38.81
2023-04-12T20:02:13.994Z,38.83
2023-04-12T20:04:41.889Z,38.86
2023-04-12T20:07:11.612Z,38.58
2023-04-12T20:09:40.018Z,38.68
2023-04-12T20:12:08.399Z,38.98
2023-04-12T20:14:38.358Z,38.75
2023-04-12T20:17:06.977Z,38.79
2023-04-12T20:19:35.066Z,38.67
2023-04-12T20:22:03.722Z,38.48
2023-04-12T20:24:34.462Z,38.76
2023-04-12T20:27:03.804Z,38.97
2023-04-12T20:29:33.337Z,38.69
2023-04-12T20:32:02.274Z,38.84
2023-04-12T20:34:30.177Z,38.41
2023-04-12T20:36:59.907Z,38.93
2023-04-12T20:39:29.572Z,38.73
2023-04-12T20:42:01.160Z,38.96
2023-04-12T20:44:29.166Z,38.80
2023-04-12T20:46:57.535Z,38.82
2023-04-12T20:49:26.251Z,38.61
2023-04-12T20:51:56.804Z,38.58
2023-04-12T20:54:26.385Z,38.82
2023-04-12T20:56:55.326Z,38.68
2023-04-12T20:59:24.576Z,38.68
2023-04-12T21:01:53.365Z,38.64
2023-04-12T21:04:22.452Z,38.79
2023-04-12T21:06:55.621Z,38.67
2023-04-12T21:09:24.490Z,38.48
2023-04-12T21:11:53.391Z,38.71
2023-04-12T21:14:21.441Z,38.87
2023-04-12T21:16:50.848Z,38.77
2023-04-12T21:19:18.958Z,38.48
2023-04-12T21:21:47.210Z,38.39
2023-04-12T21:24:15.131Z,38.62
2023-04-12T21:26:43.638Z,38.36
2023-04-12T21:29:11.771Z,38.40
2023-04-12T21:31:41.587Z,38.56
2023-04-12T21:34:10.948Z,38.58
2023-04-12T21:36:39.905Z,38.72
2023-04-12T21:39:07.827Z,38.33
2023-04-12T21:41:37.470Z,38.57
2023-04-12T21:44:05.461Z,38.53
2023-04-12T21:46:33.400Z,38.82
2023-04-12T21:49:01.299Z,38.52
2023-04-12T21:51:31.155Z,38.42
2023-04-12T21:53:59.052Z,38.68
2023-04-12T21:56:27.009Z,38.54
2023-04-12T21:58:57.355Z,38.41
2023-04-12T22:01:25.421Z,38.24
2023-04-12T22:03:53.909Z,38.45
2023-04-12T22:06:22.067Z,38.62
2023-04-12T22:08:52.300Z,38.38
2023-04-12T22:11:20.736Z,38.71
2023-04-12T22:13:48.812Z,38.30
2023-04-12T22:16:16.961Z,38.44
2023-04-12T22:18:45.628Z,38.46
2023-04-12T22:21:13.992Z,38.46
2023-04-12T22:23:42.042Z,38.61
2023-04-12T22:26:12.368Z,38.40
2023-04-12T22:28:42.543Z,38.41
2023-04-12T22:31:14.332Z,38.61
2023-04-12T22:33:43.565Z,38.38
2023-04-12T22:36:11.870Z,38.36
2023-04-12T22:38:39.883Z,38.37
2023-04-12T22:41:08.176Z,38.36
2023-04-12T22:43:41.991Z,38.22
2023-04-12T22:46:15.644Z,38.37
2023-04-12T22:48:44.065Z,38.39
2023-04-12T22:51:13.372Z,38.51
2023-04-12T22:53:41.494Z,38.33
2023-04-12T22:56:09.713Z,38.24
2023-04-12T22:58:40.398Z,38.38
2023-04-12T23:01:10.883Z,38.32
2023-04-12T23:03:41.564Z,38.12
2023-04-12T23:06:09.644Z,38.34
2023-04-12T23:08:38.667Z,38.15
2023-04-12T23:11:08.369Z,38.38
2023-04-12T23:13:36.302Z,38.24
2023-04-12T23:16:06.205Z,38.24
2023-04-12T23:18:34.129Z,38.26
2023-04-12T23:21:02.782Z,38.38
2023-04-12T23:23:30.703Z,38.25
2023-04-12T23:25:59.510Z,38.26
2023-04-12T23:28:28.510Z,38.11
2023-04-12T23:30:59.025Z,38.07
2023-04-12T23:33:28.507Z,38.15
2023-04-12T23:35:57.370Z,38.06
2023-04-12T23:38:32.518Z,38.41
2023-04-12T23:41:02.204Z,38.24
2023-04-12T23:43:30.410Z,38.14
2023-04-12T23:45:58.403Z,38.38
2023-04-12T23:48:26.370Z,38.24
2023-04-12T23:50:56.290Z,38.27
2023-04-12T23:53:24.581Z,37.91
2023-04-12T23:55:53.659Z,38.20
2023-04-12T23:58:21.929Z,38.10
